createdAt,value
2022-12-28T00:05:27.505Z,-0.15
2022-12-28T00:15:29.320Z,-0.32
2022-12-28T00:25:31.368Z,-0.36
2022-12-28T00:35:33.107Z,-0.67
2022-12-28T00:45:35.996Z,-0.83
2022-12-28T00:55:38.849Z,-1.09
2022-12-28T01:05:40.546Z,-1.24
2022-12-28T01:15:42.385Z,-1.31
2022-12-28T01:25:44.104Z,-1.22
2022-12-28T01:35:45.979Z,-1.38
2022-12-28T01:45:53.135Z,-1.45
2022-12-28T01:55:55.007Z,-1.57
2022-12-28T02:06:03.083Z,-1.75
2022-12-28T02:16:05.891Z,-1.76
2022-12-28T02:26:29.137Z,-1.44
2022-12-28T02:36:38.789Z,-1.91
2022-12-28T02:47:02.317Z,-1.99
2022-12-28T02:57:31.066Z,-2.04
2022-12-28T03:08:06.032Z,-2.08
2022-12-28T03:18:28.542Z,-1.84
2022-12-28T03:28:51.758Z,-1.92
2022-12-28T03:39:34.966Z,-2.18
2022-12-28T03:49:37.602Z,-2.13
2022-12-28T03:59:39.330Z,-2.31
2022-12-28T04:09:40.980Z,-2.19
2022-12-28T04:19:46.011Z,-2.17
2022-12-28T04:29:47.842Z,-2.22
2022-12-28T04:39:55.534Z,-2.12
2022-12-28T04:49:58.843Z,-2.20
2022-12-28T05:00:02.040Z,-2.48
2022-12-28T05:10:04.036Z,-2.69
2022-12-28T05:20:20.042Z,-2.56
2022-12-28T05:30:21.845Z,-2.36
2022-12-28T05:40:23.565Z,-2.42
2022-12-28T05:50:25.791Z,-2.44
2022-12-28T06:00:28.730Z,-2.46
2022-12-28T06:10:31.511Z,-2.55
2022-12-28T06:20:34.202Z,-2.78
2022-12-28T06:30:36.275Z,-2.79
2022-12-28T06:41:11.232Z,-2.72
2022-12-28T06:51:02.580Z,-2.61
2022-12-28T07:01:35.718Z,-2.58
2022-12-28T07:11:40.253Z,-2.43
2022-12-28T07:21:42.509Z,-2.11
2022-12-28T07:31:46.083Z,-1.59
2022-12-28T07:41:49.458Z,-0.92
2022-12-28T07:51:51.122Z,-0.60
2022-12-28T08:01:52.905Z,0.00
2022-12-28T08:11:56.868Z,0.65
2022-12-28T08:22:02.733Z,0.68
2022-12-28T08:32:04.705Z,1.15
2022-12-28T08:42:06.482Z,1.72
2022-12-28T08:52:12.600Z,1.66
2022-12-28T09:02:15.402Z,1.92
2022-12-28T09:12:17.369Z,3.28
2022-12-28T09:22:19.041Z,4.96
2022-12-28T09:32:21.036Z,6.15
2022-12-28T09:42:29.224Z,5.02
2022-12-28T09:52:55.730Z,6.42
2022-12-28T10:03:12.169Z,8.43
2022-12-28T10:13:53.637Z,9.41
2022-12-28T10:24:29.258Z,9.92
2022-12-28T10:34:22.757Z,10.93
2022-12-28T10:44:39.249Z,7.35
2022-12-28T10:54:48.969Z,6.04
2022-12-28T11:24:52.091Z,5.57
2022-12-28T11:34:56.819Z,5.67
2022-12-28T11:44:59.618Z,5.58
2022-12-28T11:55:23.837Z,6.77
2022-12-28T12:05:37.396Z,12.25
2022-12-28T12:16:07.404Z,12.84
2022-12-28T12:26:37.986Z,10.42
2022-12-28T12:37:10.315Z,6.23
2022-12-28T12:47:40.317Z,6.24
2022-12-28T12:58:05.351Z,6.22
2022-12-28T13:08:07.238Z,6.46
2022-12-28T13:28:51.604Z,6.77
2022-12-28T13:39:21.273Z,7.71
2022-12-28T13:49:24.204Z,6.91
2022-12-28T13:59:27.835Z,6.21
2022-12-28T14:09:41.274Z,5.62
2022-12-28T14:19:43.731Z,5.43
2022-12-28T14:29:46.884Z,4.98
2022-12-28T14:39:50.007Z,4.76
2022-12-28T14:49:59.205Z,4.54
2022-12-28T15:00:26.002Z,4.43
2022-12-28T15:10:38.508Z,4.35
2022-12-28T15:20:40.366Z,4.07
2022-12-28T15:30:49.195Z,3.88
2022-12-28T15:40:55.093Z,3.61
2022-12-28T15:50:56.749Z,3.52
2022-12-28T16:01:01.635Z,3.41
2022-12-28T16:11:10.046Z,3.24
2022-12-28T16:21:12.163Z,3.32
2022-12-28T16:31:28.781Z,3.46
2022-12-28T16:41:36.620Z,3.43
2022-12-28T16:51:41.516Z,3.50
2022-12-28T17:01:44.207Z,3.57
2022-12-28T17:11:50.348Z,3.46
2022-12-28T17:21:55.790Z,3.26
2022-12-28T17:31:57.751Z,3.06
2022-12-28T17:42:03.108Z,3.03
2022-12-28T17:52:06.386Z,2.92
2022-12-28T18:02:13.134Z,2.79
2022-12-28T18:12:17.912Z,2.62
2022-12-28T18:22:23.447Z,2.51
2022-12-28T18:32:26.576Z,2.34
2022-12-28T18:42:28.883Z,2.26
2022-12-28T19:02:04.696Z,1.97
2022-12-28T19:11:48.059Z,1.88
2022-12-28T19:21:56.545Z,1.67
2022-12-28T19:32:02.189Z,1.41
2022-12-28T19:42:04.368Z,1.29
2022-12-28T19:52:08.418Z,1.12
2022-12-28T20:02:12.611Z,0.79
2022-12-28T20:12:16.106Z,0.98
2022-12-28T20:22:18.789Z,0.56
2022-12-28T20:32:21.307Z,0.35
2022-12-28T20:42:44.143Z,0.32
2022-12-28T20:52:55.775Z,0.16
2022-12-28T21:02:57.962Z,-0.01
2022-12-28T21:13:00.046Z,-0.19
2022-12-28T21:23:03.001Z,-0.40
2022-12-28T21:33:08.964Z,-0.69
2022-12-28T21:43:13.096Z,-0.90
2022-12-28T21:53:22.278Z,-1.04
2022-12-28T22:03:44.015Z,-1.20
2022-12-28T22:13:46.147Z,-1.19
2022-12-28T22:23:49.133Z,-1.16
2022-12-28T22:33:55.177Z,-1.27
2022-12-28T22:43:57.833Z,-1.53
2022-12-28T22:54:02.869Z,-1.49
2022-12-28T23:04:05.963Z,-1.44
2022-12-28T23:14:42.909Z,-1.17
2022-12-28T23:25:04.127Z,-0.84
2022-12-28T23:35:06.853Z,-0.87
2022-12-28T23:45:12.185Z,-1.10
2022-12-28T23:55:18.091Z,-1.32
